Time;durP1;ratioP1;P1;durP2;ratioP2;P2;SDS_P1;SDS_P2;PMS_P1;PMS_P2;Temp;Humidity;BMP_temperature;BMP_pressure;BME280_temperature;BME280_humidity;BME280_pressure;Samples;Min_cycle;Max_cycle;Signal;HPM_P1;HPM_P2
2023/09/17 00:02:16;;;;;;;;;;;20.20;95.30;;;;;;5074632;28;20254;-71
2023/09/17 00:04:42;;;;;;;;;;;20.20;95.30;;;;;;5094461;28;19912;-71
2023/09/17 00:07:09;;;;;;;;;;;20.20;95.30;;;;;;5086938;28;19991;-71
2023/09/17 00:09:35;;;;;;;;;;;20.20;95.30;;;;;;5097835;28;19912;-71
2023/09/17 00:12:00;;;;;;;;;;;20.20;95.40;;;;;;5083630;28;20004;-71
2023/09/17 00:14:26;;;;;;;;;;;20.20;95.40;;;;;;5101442;28;19979;-71
2023/09/17 00:16:52;;;;;;;;;;;20.20;95.40;;;;;;5090795;28;20397;-71
2023/09/17 00:19:17;;;;;;;;;;;20.10;95.30;;;;;;5084073;28;19916;-71
2023/09/17 00:21:43;;;;;;;;;;;20.20;95.30;;;;;;5072641;28;20572;-71
2023/09/17 00:24:08;;;;;;;;;;;20.20;95.30;;;;;;5087599;28;19916;-71
2023/09/17 00:26:34;;;;;;;;;;;20.10;95.30;;;;;;5097587;28;19926;-71
2023/09/17 00:29:00;;;;;;;;;;;20.10;95.40;;;;;;5084271;28;19908;-71
2023/09/17 00:31:26;;;;;;;;;;;20.10;95.30;;;;;;5094338;27;20368;-71
2023/09/17 00:33:51;;;;;;;;;;;20.10;95.30;;;;;;5088870;28;19912;-71
2023/09/17 00:36:17;;;;;;;;;;;20.10;95.30;;;;;;5116319;27;20041;-71
2023/09/17 00:38:42;;;;;;;;;;;20.10;95.30;;;;;;5110435;27;19946;-71
2023/09/17 00:41:08;;;;;;;;;;;20.10;95.30;;;;;;5083283;28;19979;-72
2023/09/17 00:43:34;;;;;;;;;;;20.10;95.30;;;;;;5076931;28;19911;-71
2023/09/17 00:45:59;;;;;;;;;;;20.10;95.30;;;;;;5068457;28;19999;-71
2023/09/17 00:48:26;;;;;;;;;;;20.00;95.30;;;;;;5098917;28;19991;-71
2023/09/17 00:50:51;;;;;;;;;;;20.00;95.40;;;;;;5087547;28;19916;-71
2023/09/17 00:53:17;;;;;;;;;;;20.00;95.40;;;;;;5082436;28;19912;-71
2023/09/17 00:55:43;;;;;;;;;;;20.00;95.40;;;;;;5121168;27;20394;-71
2023/09/17 00:58:08;;;;;;;;;;;20.00;95.30;;;;;;5088796;28;20636;-71
2023/09/17 01:00:38;;;;;;;;;;;20.00;95.40;;;;;;5097093;28;19916;-71
2023/09/17 01:03:04;;;;;;;;;;;20.00;95.30;;;;;;5079912;28;20331;-71
2023/09/17 01:05:36;;;;;;;;;;;20.00;95.40;;;;;;5105456;27;19991;-71
2023/09/17 01:08:05;;;;;;;;;;;20.00;95.40;;;;;;5108025;27;19916;-71
2023/09/17 01:10:32;;;;;;;;;;;20.00;95.40;;;;;;5091250;28;20610;-71
2023/09/17 01:12:59;;;;;;;;;;;20.00;95.40;;;;;;5088408;28;20006;-71
2023/09/17 01:15:27;;;;;;;;;;;19.90;95.40;;;;;;5088474;28;19955;-71
2023/09/17 01:17:54;;;;;;;;;;;19.90;95.40;;;;;;5088325;28;19912;-70
2023/09/17 01:20:29;;;;;;;;;;;19.90;95.40;;;;;;5106540;27;19913;-71
2023/09/17 01:23:11;;;;;;;;;;;19.90;95.40;;;;;;5085858;28;19908;-71
2023/09/17 01:25:46;;;;;;;;;;;19.90;95.40;;;;;;5079811;28;19916;-71
2023/09/17 01:28:13;;;;;;;;;;;19.90;95.40;;;;;;5092134;28;20368;-71
2023/09/17 01:30:41;;;;;;;;;;;19.90;95.50;;;;;;5090988;28;19920;-71
2023/09/17 01:33:09;;;;;;;;;;;19.90;95.50;;;;;;5079694;28;19908;-71
2023/09/17 01:35:41;;;;;;;;;;;19.90;95.50;;;;;;5096870;28;19987;-71
2023/09/17 01:38:08;;;;;;;;;;;19.80;95.50;;;;;;5083692;28;20053;-71
2023/09/17 01:40:34;;;;;;;;;;;19.80;95.50;;;;;;5079851;28;19915;-71
2023/09/17 01:43:01;;;;;;;;;;;19.80;95.50;;;;;;5076228;28;19909;-70
2023/09/17 01:45:28;;;;;;;;;;;19.80;95.50;;;;;;5076429;28;20754;-70
2023/09/17 01:47:54;;;;;;;;;;;19.80;95.50;;;;;;5086623;28;20395;-70
2023/09/17 01:50:23;;;;;;;;;;;19.80;95.60;;;;;;5087901;28;19922;-71
2023/09/17 01:52:48;;;;;;;;;;;19.80;95.60;;;;;;5087911;28;19936;-70
2023/09/17 01:55:14;;;;;;;;;;;19.80;95.60;;;;;;5087712;28;20430;-70
2023/09/17 01:57:41;;;;;;;;;;;19.80;95.70;;;;;;5099903;28;20391;-70
2023/09/17 02:00:16;;;;;;;;;;;19.80;95.60;;;;;;5087204;28;19919;-70
2023/09/17 02:02:43;;;;;;;;;;;19.80;95.60;;;;;;5093885;28;20288;-70
2023/09/17 02:05:09;;;;;;;;;;;19.80;95.60;;;;;;5113017;27;19977;-70
2023/09/17 02:07:36;;;;;;;;;;;19.80;95.60;;;;;;5079736;28;20436;-70
2023/09/17 02:10:02;;;;;;;;;;;19.80;95.60;;;;;;5090901;28;19919;-70
2023/09/17 02:12:28;;;;;;;;;;;19.80;95.60;;;;;;5091437;27;20474;-71
2023/09/17 02:14:54;;;;;;;;;;;19.80;95.60;;;;;;5094050;28;19912;-71
2023/09/17 02:17:19;;;;;;;;;;;19.80;95.70;;;;;;5079153;28;20330;-71
2023/09/17 02:19:45;;;;;;;;;;;19.80;95.70;;;;;;5087331;28;19947;-71
2023/09/17 02:22:10;;;;;;;;;;;19.70;95.70;;;;;;5087724;28;19995;-70
2023/09/17 02:24:36;;;;;;;;;;;19.70;95.70;;;;;;5086069;28;20541;-70
2023/09/17 02:27:02;;;;;;;;;;;19.70;95.60;;;;;;5078923;28;19927;-70
2023/09/17 02:29:28;;;;;;;;;;;19.70;95.70;;;;;;5094732;28;19912;-70
2023/09/17 02:31:54;;;;;;;;;;;19.70;95.70;;;;;;5088642;28;19922;-71
2023/09/17 02:34:19;;;;;;;;;;;19.70;95.70;;;;;;5087511;28;19912;-71
2023/09/17 02:36:45;;;;;;;;;;;19.70;95.70;;;;;;5087243;28;20541;-70
2023/09/17 02:39:11;;;;;;;;;;;19.70;95.70;;;;;;5092025;28;19908;-70
2023/09/17 02:41:39;;;;;;;;;;;19.60;95.70;;;;;;5090110;28;20598;-70
2023/09/17 02:44:04;;;;;;;;;;;19.60;95.70;;;;;;5095631;28;19950;-70
2023/09/17 02:46:30;;;;;;;;;;;19.60;95.70;;;;;;5095055;28;19955;-70
2023/09/17 02:48:55;;;;;;;;;;;19.60;95.70;;;;;;5085775;28;19969;-70
2023/09/17 02:51:21;;;;;;;;;;;19.60;95.70;;;;;;5067437;28;20301;-70
2023/09/17 02:53:47;;;;;;;;;;;19.60;95.80;;;;;;5109982;28;20319;-70
2023/09/17 02:56:13;;;;;;;;;;;19.60;95.80;;;;;;5086278;28;20007;-70
2023/09/17 02:58:38;;;;;;;;;;;19.50;95.80;;;;;;5095457;28;19993;-71
2023/09/17 03:01:18;;;;;;;;;;;19.60;95.80;;;;;;5087148;28;20398;-71
2023/09/17 03:03:50;;;;;;;;;;;19.60;95.80;;;;;;5086535;28;19945;-71
2023/09/17 03:06:16;;;;;;;;;;;19.50;95.80;;;;;;5095439;28;20010;-71
2023/09/17 03:08:41;;;;;;;;;;;19.50;95.80;;;;;;5103363;28;20056;-71
2023/09/17 03:11:13;;;;;;;;;;;19.50;95.80;;;;;;5082803;28;19917;-71
2023/09/17 03:13:42;;;;;;;;;;;19.50;95.80;;;;;;5076155;28;19916;-70
2023/09/17 03:16:08;;;;;;;;;;;19.50;95.90;;;;;;5087371;28;19915;-70
2023/09/17 03:18:34;;;;;;;;;;;19.50;95.80;;;;;;5111358;28;19934;-71
2023/09/17 03:20:59;;;;;;;;;;;19.50;95.90;;;;;;5099422;28;20532;-71
2023/09/17 03:23:25;;;;;;;;;;;19.40;95.90;;;;;;5090438;28;19918;-71
2023/09/17 03:25:50;;;;;;;;;;;19.50;95.90;;;;;;5090121;28;19916;-70
2023/09/17 03:28:16;;;;;;;;;;;19.50;96.00;;;;;;5090909;28;19912;-70
2023/09/17 03:30:42;;;;;;;;;;;19.40;96.00;;;;;;5098580;28;19998;-71
2023/09/17 03:33:08;;;;;;;;;;;19.40;96.00;;;;;;5086379;28;19912;-71
2023/09/17 03:35:33;;;;;;;;;;;19.40;95.90;;;;;;5070273;28;20360;-71
2023/09/17 03:37:59;;;;;;;;;;;19.40;96.00;;;;;;5075620;28;19914;-71
2023/09/17 03:40:25;;;;;;;;;;;19.40;96.00;;;;;;5080755;28;19959;-70
2023/09/17 03:42:50;;;;;;;;;;;19.30;96.00;;;;;;5105081;28;20048;-70
2023/09/17 03:45:16;;;;;;;;;;;19.40;96.00;;;;;;5089955;28;20432;-70
2023/09/17 03:47:42;;;;;;;;;;;19.30;95.90;;;;;;5090051;28;19912;-70
2023/09/17 03:50:08;;;;;;;;;;;19.30;96.10;;;;;;5095939;28;19915;-70
2023/09/17 03:52:35;;;;;;;;;;;19.30;96.30;;;;;;5098588;28;19912;-70
2023/09/17 03:55:01;;;;;;;;;;;19.30;96.10;;;;;;5092451;28;19912;-70
2023/09/17 03:57:27;;;;;;;;;;;19.30;96.10;;;;;;5080462;27;19966;-70
2023/09/17 03:59:54;;;;;;;;;;;19.30;96.10;;;;;;5071837;28;20688;-70
2023/09/17 04:02:20;;;;;;;;;;;19.30;96.10;;;;;;5090084;28;20002;-70
2023/09/17 04:04:46;;;;;;;;;;;19.30;96.10;;;;;;5087942;28;19983;-70
2023/09/17 04:07:12;;;;;;;;;;;19.30;96.10;;;;;;5089907;28;19919;-70
2023/09/17 04:09:38;;;;;;;;;;;19.30;96.10;;;;;;5089297;28;19916;-70
2023/09/17 04:12:04;;;;;;;;;;;19.20;96.20;;;;;;5101552;28;19927;-71
2023/09/17 04:14:31;;;;;;;;;;;19.20;96.20;;;;;;5093152;28;19911;-70
2023/09/17 04:17:00;;;;;;;;;;;19.20;96.20;;;;;;5113929;27;19913;-70
2023/09/17 04:19:26;;;;;;;;;;;19.30;96.20;;;;;;5073835;28;19908;-71
2023/09/17 04:21:52;;;;;;;;;;;19.20;96.10;;;;;;5103556;28;19918;-71
2023/09/17 04:24:18;;;;;;;;;;;19.20;96.20;;;;;;5096411;28;19915;-71
2023/09/17 04:26:45;;;;;;;;;;;19.20;96.20;;;;;;5106556;28;20013;-70
2023/09/17 04:29:12;;;;;;;;;;;19.30;96.30;;;;;;5096675;28;20376;-71
2023/09/17 04:31:37;;;;;;;;;;;19.20;96.30;;;;;;5089617;28;20242;-71
2023/09/17 04:34:03;;;;;;;;;;;19.20;96.30;;;;;;5089011;28;19918;-71
2023/09/17 04:36:29;;;;;;;;;;;19.20;96.30;;;;;;5089484;28;19919;-70
2023/09/17 04:38:55;;;;;;;;;;;19.20;96.30;;;;;;5080453;28;20252;-71
2023/09/17 04:41:20;;;;;;;;;;;19.20;96.30;;;;;;5089093;28;19912;-70
2023/09/17 04:43:46;;;;;;;;;;;19.20;96.30;;;;;;5088543;28;19958;-70
2023/09/17 04:46:12;;;;;;;;;;;19.20;96.30;;;;;;5083109;28;19912;-70
2023/09/17 04:48:38;;;;;;;;;;;19.20;96.30;;;;;;5085373;28;19911;-70
2023/09/17 04:51:05;;;;;;;;;;;19.10;96.30;;;;;;5095747;28;19912;-70
2023/09/17 04:53:30;;;;;;;;;;;19.10;96.30;;;;;;5088965;28;19912;-70
2023/09/17 04:55:56;;;;;;;;;;;19.10;96.30;;;;;;5088485;28;19935;-70
2023/09/17 04:58:21;;;;;;;;;;;19.10;96.30;;;;;;5088944;28;20379;-70
2023/09/17 05:00:47;;;;;;;;;;;19.10;96.30;;;;;;5078484;28;19952;-70
2023/09/17 05:03:12;;;;;;;;;;;19.10;96.30;;;;;;5080195;28;19908;-70
2023/09/17 05:05:38;;;;;;;;;;;19.10;96.40;;;;;;5071655;28;20169;-70
2023/09/17 05:08:04;;;;;;;;;;;19.10;96.40;;;;;;5103186;28;19912;-70
2023/09/17 05:10:30;;;;;;;;;;;19.10;96.40;;;;;;5107028;28;20324;-70
2023/09/17 05:12:56;;;;;;;;;;;19.00;96.40;;;;;;5100105;28;19962;-70
2023/09/17 05:15:22;;;;;;;;;;;19.00;96.40;;;;;;5092756;28;20019;-70
2023/09/17 05:17:47;;;;;;;;;;;19.10;96.30;;;;;;5087979;28;19995;-70
2023/09/17 05:20:13;;;;;;;;;;;19.00;96.30;;;;;;5088448;28;20368;-70
2023/09/17 05:22:38;;;;;;;;;;;19.00;96.40;;;;;;5088502;28;19955;-70
2023/09/17 05:25:07;;;;;;;;;;;19.00;96.40;;;;;;5067679;28;19912;-70
2023/09/17 05:27:33;;;;;;;;;;;19.00;96.40;;;;;;5074578;28;19920;-70
2023/09/17 05:29:59;;;;;;;;;;;19.00;96.40;;;;;;5096575;28;19908;-70
2023/09/17 05:32:25;;;;;;;;;;;19.00;96.50;;;;;;5088222;28;19915;-70
2023/09/17 05:34:51;;;;;;;;;;;19.00;96.50;;;;;;5087399;28;19919;-70
2023/09/17 05:37:16;;;;;;;;;;;19.00;96.40;;;;;;5084111;28;20003;-70
2023/09/17 05:39:42;;;;;;;;;;;19.00;96.40;;;;;;5110082;27;19913;-70
2023/09/17 05:42:07;;;;;;;;;;;19.00;96.50;;;;;;5092043;28;20569;-70
2023/09/17 05:44:33;;;;;;;;;;;19.00;96.40;;;;;;5084949;28;19916;-70
2023/09/17 05:46:58;;;;;;;;;;;18.90;96.50;;;;;;5067680;28;19913;-70
2023/09/17 05:49:24;;;;;;;;;;;18.90;96.50;;;;;;5066636;28;20335;-70
2023/09/17 05:51:49;;;;;;;;;;;18.90;96.50;;;;;;5093661;28;20391;-70
2023/09/17 05:54:15;;;;;;;;;;;19.00;96.50;;;;;;5100698;28;19907;-70
2023/09/17 05:56:40;;;;;;;;;;;19.00;96.50;;;;;;5104382;28;19924;-70
2023/09/17 05:59:06;;;;;;;;;;;18.90;96.60;;;;;;5086039;28;19912;-70
2023/09/17 06:01:33;;;;;;;;;;;18.90;96.60;;;;;;5087649;28;19913;-70
2023/09/17 06:03:58;;;;;;;;;;;18.90;96.50;;;;;;5086335;28;19913;-70
2023/09/17 06:06:24;;;;;;;;;;;19.00;96.60;;;;;;5076296;28;19912;-70
2023/09/17 06:08:50;;;;;;;;;;;19.00;96.60;;;;;;5069443;28;19947;-70
2023/09/17 06:11:17;;;;;;;;;;;19.00;96.60;;;;;;5098125;28;19971;-70
2023/09/17 06:13:43;;;;;;;;;;;19.00;96.60;;;;;;5107867;28;19908;-70
2023/09/17 06:16:08;;;;;;;;;;;19.00;96.60;;;;;;5075413;28;19916;-70
2023/09/17 06:18:34;;;;;;;;;;;18.90;96.70;;;;;;5104385;28;20003;-70
2023/09/17 06:21:00;;;;;;;;;;;19.00;96.70;;;;;;5086358;28;19927;-70
2023/09/17 06:23:25;;;;;;;;;;;19.00;96.60;;;;;;5092068;28;19973;-70
2023/09/17 06:25:52;;;;;;;;;;;19.00;96.60;;;;;;5088868;28;19922;-70
2023/09/17 06:28:18;;;;;;;;;;;19.00;96.70;;;;;;5081302;28;20344;-71
2023/09/17 06:30:44;;;;;;;;;;;19.00;96.60;;;;;;5066903;28;19955;-71
2023/09/17 06:33:10;;;;;;;;;;;19.00;96.60;;;;;;5099745;28;19917;-70
2023/09/17 06:35:35;;;;;;;;;;;19.00;96.60;;;;;;5099342;28;19919;-70
2023/09/17 06:38:01;;;;;;;;;;;19.00;96.70;;;;;;5076266;28;20387;-70
2023/09/17 06:40:26;;;;;;;;;;;19.00;96.70;;;;;;5092968;28;20452;-70
2023/09/17 06:42:52;;;;;;;;;;;19.00;96.70;;;;;;5095453;28;19968;-70
2023/09/17 06:45:18;;;;;;;;;;;19.00;96.70;;;;;;5090986;28;19974;-70
2023/09/17 06:47:43;;;;;;;;;;;19.00;96.70;;;;;;5101079;28;19966;-70
2023/09/17 06:50:09;;;;;;;;;;;19.00;96.70;;;;;;5091265;28;19915;-70
2023/09/17 06:52:35;;;;;;;;;;;19.00;96.70;;;;;;5083233;28;20020;-70
2023/09/17 06:55:00;;;;;;;;;;;19.10;96.80;;;;;;5090639;28;19916;-70
2023/09/17 06:57:26;;;;;;;;;;;19.10;96.80;;;;;;5091638;28;19913;-70
2023/09/17 06:59:52;;;;;;;;;;;19.10;96.80;;;;;;5091044;28;19916;-70
2023/09/17 07:02:17;;;;;;;;;;;19.10;96.90;;;;;;5097141;28;19915;-70
2023/09/17 07:04:43;;;;;;;;;;;19.10;97.00;;;;;;5093895;28;20441;-70
2023/09/17 07:07:09;;;;;;;;;;;19.20;97.00;;;;;;5099165;28;19923;-70
2023/09/17 07:09:34;;;;;;;;;;;19.10;97.10;;;;;;5084483;28;19908;-70
2023/09/17 07:12:00;;;;;;;;;;;19.20;97.10;;;;;;5098883;28;20007;-70
2023/09/17 07:14:25;;;;;;;;;;;19.30;97.30;;;;;;5082565;28;19918;-70
2023/09/17 07:16:51;;;;;;;;;;;19.20;97.30;;;;;;5099283;28;19916;-70
2023/09/17 07:19:16;;;;;;;;;;;19.30;97.40;;;;;;5082850;28;19912;-70
2023/09/17 07:21:42;;;;;;;;;;;19.30;97.30;;;;;;5098931;28;19912;-70
2023/09/17 07:24:08;;;;;;;;;;;19.40;97.30;;;;;;5098134;28;19912;-70
2023/09/17 07:26:33;;;;;;;;;;;19.40;97.30;;;;;;5089391;28;19920;-70
2023/09/17 07:28:59;;;;;;;;;;;19.40;97.10;;;;;;5098928;28;19908;-70
2023/09/17 07:31:24;;;;;;;;;;;19.50;97.20;;;;;;5090834;28;19965;-70
2023/09/17 07:33:50;;;;;;;;;;;19.50;97.30;;;;;;5080717;28;20383;-70
2023/09/17 07:36:15;;;;;;;;;;;19.50;97.10;;;;;;5070292;28;19909;-70
2023/09/17 07:38:41;;;;;;;;;;;19.50;96.90;;;;;;5094859;28;19920;-70
2023/09/17 07:41:06;;;;;;;;;;;19.60;97.00;;;;;;5089693;28;20452;-70
2023/09/17 07:43:32;;;;;;;;;;;19.50;96.80;;;;;;5091554;28;19951;-70
2023/09/17 07:45:57;;;;;;;;;;;19.60;96.70;;;;;;5088116;28;19951;-70
2023/09/17 07:48:24;;;;;;;;;;;19.60;96.70;;;;;;5091078;28;19916;-70
2023/09/17 07:50:59;;;;;;;;;;;19.60;96.60;;;;;;5087391;28;19995;-70
2023/09/17 07:53:25;;;;;;;;;;;19.60;96.70;;;;;;5089692;28;19948;-70
2023/09/17 07:55:51;;;;;;;;;;;19.60;96.60;;;;;;5088054;28;19950;-70
2023/09/17 07:58:17;;;;;;;;;;;19.60;96.50;;;;;;5089253;28;19912;-70
2023/09/17 08:00:45;;;;;;;;;;;19.70;96.50;;;;;;5090736;28;20398;-70
2023/09/17 08:03:17;;;;;;;;;;;19.70;96.50;;;;;;5089790;28;19991;-70
2023/09/17 08:05:43;;;;;;;;;;;19.70;96.50;;;;;;5089017;28;20292;-70
2023/09/17 08:08:09;;;;;;;;;;;19.70;96.40;;;;;;5087719;28;19916;-70
2023/09/17 08:10:35;;;;;;;;;;;19.80;96.40;;;;;;5090023;28;19955;-70
2023/09/17 08:13:01;;;;;;;;;;;19.80;96.30;;;;;;5089718;28;19912;-70
2023/09/17 08:15:27;;;;;;;;;;;19.80;96.40;;;;;;5089610;28;19912;-70
2023/09/17 08:17:53;;;;;;;;;;;19.90;96.30;;;;;;5089728;28;19919;-70
2023/09/17 08:20:19;;;;;;;;;;;19.90;96.30;;;;;;5095219;28;20551;-70
2023/09/17 08:22:45;;;;;;;;;;;20.00;96.10;;;;;;5079674;28;20353;-70
2023/09/17 08:25:11;;;;;;;;;;;20.00;96.20;;;;;;5080150;28;19999;-70
2023/09/17 08:27:37;;;;;;;;;;;20.00;96.10;;;;;;5088335;28;19920;-70
2023/09/17 08:30:04;;;;;;;;;;;20.10;96.00;;;;;;5089275;28;20388;-70
2023/09/17 08:32:30;;;;;;;;;;;20.10;96.10;;;;;;5088106;28;19974;-70
2023/09/17 08:34:55;;;;;;;;;;;20.10;96.00;;;;;;5089070;28;20312;-70
2023/09/17 08:37:22;;;;;;;;;;;20.20;96.10;;;;;;5076258;28;19951;-70
2023/09/17 08:39:48;;;;;;;;;;;20.20;95.80;;;;;;5092424;28;19919;-70
2023/09/17 08:42:14;;;;;;;;;;;20.30;96.00;;;;;;5083345;28;19946;-70
2023/09/17 08:44:42;;;;;;;;;;;20.20;95.80;;;;;;5075764;28;19908;-70
2023/09/17 08:47:07;;;;;;;;;;;20.30;95.80;;;;;;5067979;28;19912;-70
2023/09/17 08:49:33;;;;;;;;;;;20.30;95.80;;;;;;5085427;28;19927;-70
2023/09/17 08:52:00;;;;;;;;;;;20.40;95.80;;;;;;5088257;28;19916;-70
2023/09/17 08:54:28;;;;;;;;;;;20.40;95.70;;;;;;5078057;28;19908;-70
2023/09/17 08:56:55;;;;;;;;;;;20.40;95.70;;;;;;5065278;28;20355;-70
2023/09/17 08:59:28;;;;;;;;;;;20.40;95.70;;;;;;5067610;28;19915;-70
2023/09/17 09:01:55;;;;;;;;;;;20.50;95.60;;;;;;5109067;27;19919;-70
2023/09/17 09:04:21;;;;;;;;;;;20.50;95.60;;;;;;5100504;28;19918;-70
2023/09/17 09:06:47;;;;;;;;;;;20.50;95.50;;;;;;5083420;28;19939;-70
2023/09/17 09:09:14;;;;;;;;;;;20.50;95.50;;;;;;5087007;28;19912;-70
2023/09/17 09:11:40;;;;;;;;;;;20.50;95.60;;;;;;5087452;28;19916;-70
2023/09/17 09:14:06;;;;;;;;;;;20.50;95.50;;;;;;5083864;28;19973;-70
2023/09/17 09:16:33;;;;;;;;;;;20.50;95.50;;;;;;5114993;27;19912;-70
2023/09/17 09:18:59;;;;;;;;;;;20.60;95.50;;;;;;5087019;28;20550;-70
2023/09/17 09:21:24;;;;;;;;;;;20.60;95.60;;;;;;5081325;28;19986;-70
2023/09/17 09:23:50;;;;;;;;;;;20.60;95.50;;;;;;5083892;28;19920;-70
2023/09/17 09:26:15;;;;;;;;;;;20.60;95.50;;;;;;5086562;28;19916;-70
2023/09/17 09:28:41;;;;;;;;;;;20.60;95.50;;;;;;5086653;28;19958;-70
2023/09/17 09:31:07;;;;;;;;;;;20.70;95.50;;;;;;5086319;28;19916;-70
2023/09/17 09:33:33;;;;;;;;;;;20.70;95.40;;;;;;5086814;28;19912;-70
2023/09/17 09:36:00;;;;;;;;;;;20.70;95.40;;;;;;5086930;28;19991;-70
2023/09/17 09:38:26;;;;;;;;;;;20.70;95.40;;;;;;5080708;28;19912;-70
2023/09/17 09:40:51;;;;;;;;;;;20.80;95.40;;;;;;5086651;28;20003;-70
2023/09/17 09:43:28;;;;;;;;;;;20.80;95.30;;;;;;5086678;28;20022;-70
2023/09/17 09:45:53;;;;;;;;;;;20.80;95.40;;;;;;5084782;28;19938;-70
2023/09/17 09:48:19;;;;;;;;;;;20.80;95.30;;;;;;5086842;28;19912;-70
2023/09/17 09:50:47;;;;;;;;;;;20.90;95.40;;;;;;5086357;28;19918;-70
2023/09/17 09:53:14;;;;;;;;;;;20.90;95.30;;;;;;5085899;28;19991;-70
2023/09/17 09:55:40;;;;;;;;;;;21.00;95.20;;;;;;5084508;28;19912;-70
2023/09/17 09:58:05;;;;;;;;;;;21.00;95.20;;;;;;5074376;28;20011;-70
2023/09/17 10:00:32;;;;;;;;;;;20.90;95.20;;;;;;5077695;28;19912;-70
2023/09/17 10:02:57;;;;;;;;;;;20.90;95.50;;;;;;5088798;28;19918;-70
2023/09/17 10:05:37;;;;;;;;;;;21.00;95.20;;;;;;5089873;28;19912;-71
2023/09/17 10:08:06;;;;;;;;;;;21.00;95.20;;;;;;5085318;28;19925;-70
2023/09/17 10:10:32;;;;;;;;;;;21.00;95.30;;;;;;5083554;28;20348;-70
2023/09/17 10:12:59;;;;;;;;;;;21.00;95.20;;;;;;5086221;28;19965;-70
2023/09/17 10:15:25;;;;;;;;;;;21.10;95.40;;;;;;5086308;28;19911;-70
2023/09/17 10:17:51;;;;;;;;;;;21.10;95.10;;;;;;5085085;28;19922;-70
2023/09/17 10:20:18;;;;;;;;;;;21.20;95.20;;;;;;5079152;28;20602;-70
2023/09/17 10:22:46;;;;;;;;;;;21.20;95.10;;;;;;5089083;28;20391;-70
2023/09/17 10:25:14;;;;;;;;;;;21.30;95.10;;;;;;5082259;28;20692;-70
2023/09/17 10:27:42;;;;;;;;;;;21.20;95.10;;;;;;5082610;28;20339;-70
2023/09/17 10:30:08;;;;;;;;;;;21.20;95.00;;;;;;5073637;28;20424;-70
2023/09/17 10:32:34;;;;;;;;;;;21.20;95.20;;;;;;5083851;28;20315;-70
2023/09/17 10:35:00;;;;;;;;;;;21.20;95.20;;;;;;5077999;28;19909;-70
2023/09/17 10:37:27;;;;;;;;;;;21.30;95.20;;;;;;5072091;28;20041;-70
2023/09/17 10:39:54;;;;;;;;;;;21.30;95.10;;;;;;5077927;28;20014;-70
2023/09/17 10:42:20;;;;;;;;;;;21.40;95.10;;;;;;5083809;28;19919;-70
2023/09/17 10:44:47;;;;;;;;;;;21.40;95.10;;;;;;5079735;28;19917;-70
2023/09/17 10:47:12;;;;;;;;;;;21.50;94.90;;;;;;5090017;28;19909;-70
2023/09/17 10:49:38;;;;;;;;;;;21.60;95.20;;;;;;5081575;28;19922;-70
2023/09/17 10:52:05;;;;;;;;;;;21.50;95.20;;;;;;5075272;28;19963;-70
2023/09/17 10:54:30;;;;;;;;;;;21.60;95.20;;;;;;5085143;28;19918;-70
2023/09/17 10:56:56;;;;;;;;;;;21.60;95.30;;;;;;5081354;28;19912;-70
2023/09/17 10:59:22;;;;;;;;;;;21.70;95.40;;;;;;5081438;28;20275;-70
2023/09/17 11:01:49;;;;;;;;;;;21.80;95.10;;;;;;5080600;28;19958;-70
2023/09/17 11:04:16;;;;;;;;;;;21.90;95.40;;;;;;5080876;28;19926;-70
2023/09/17 11:06:43;;;;;;;;;;;22.00;95.40;;;;;;5083843;28;19927;-70
2023/09/17 11:09:09;;;;;;;;;;;22.00;95.40;;;;;;5090792;28;19924;-70
2023/09/17 11:11:35;;;;;;;;;;;22.10;95.40;;;;;;5089052;28;19916;-70
2023/09/17 11:14:01;;;;;;;;;;;22.20;95.30;;;;;;5085291;28;19912;-69
2023/09/17 11:16:28;;;;;;;;;;;22.30;95.40;;;;;;5069366;28;19912;-70
2023/09/17 11:19:15;;;;;;;;;;;22.40;95.40;;;;;;5071717;28;20476;-70
2023/09/17 11:21:42;;;;;;;;;;;22.50;95.40;;;;;;5082788;28;19922;-70
2023/09/17 11:24:10;;;;;;;;;;;22.60;95.60;;;;;;5084191;28;20478;-69
2023/09/17 11:26:37;;;;;;;;;;;22.70;95.40;;;;;;5084809;28;20299;-70
2023/09/17 11:29:06;;;;;;;;;;;22.80;95.50;;;;;;5080656;28;20365;-70
2023/09/17 11:31:33;;;;;;;;;;;22.90;95.50;;;;;;5089326;28;19916;-69
2023/09/17 11:33:58;;;;;;;;;;;23.00;95.70;;;;;;5088077;28;19919;-69
2023/09/17 11:36:25;;;;;;;;;;;23.10;95.60;;;;;;5087447;28;19912;-70
2023/09/17 11:38:51;;;;;;;;;;;23.20;95.50;;;;;;5087792;28;19916;-70
2023/09/17 11:41:19;;;;;;;;;;;23.20;95.60;;;;;;5070888;28;20319;-70
2023/09/17 11:43:46;;;;;;;;;;;23.40;95.50;;;;;;5068618;28;19912;-69
2023/09/17 11:46:13;;;;;;;;;;;23.40;95.60;;;;;;5068540;28;19927;-69
2023/09/17 11:48:40;;;;;;;;;;;23.50;95.40;;;;;;5076797;28;20006;-69
2023/09/17 11:51:41;;;;;;;;;;;23.50;95.50;;;;;;5085039;28;19916;-70
2023/09/17 11:54:08;;;;;;;;;;;23.60;95.30;;;;;;5043651;28;19917;-70
2023/09/17 11:56:34;;;;;;;;;;;23.70;95.20;;;;;;5063688;28;20007;-69
2023/09/17 11:59:02;;;;;;;;;;;23.80;95.30;;;;;;5084452;28;20003;-70
2023/09/17 12:01:29;;;;;;;;;;;23.90;95.20;;;;;;5067941;28;20636;-70
2023/09/17 12:03:55;;;;;;;;;;;24.00;95.10;;;;;;5068028;28;20655;-70
2023/09/17 12:06:21;;;;;;;;;;;24.10;94.90;;;;;;5086032;28;19928;-70
2023/09/17 12:08:47;;;;;;;;;;;24.20;94.70;;;;;;5071698;28;19919;-70
2023/09/17 12:11:21;;;;;;;;;;;24.20;95.10;;;;;;5074484;28;19919;-70
2023/09/17 12:13:58;;;;;;;;;;;24.20;95.10;;;;;;5070942;28;20303;-70
2023/09/17 12:16:24;;;;;;;;;;;24.30;94.50;;;;;;5082348;28;20630;-70
2023/09/17 12:18:51;;;;;;;;;;;24.30;94.70;;;;;;5095031;28;19912;-70
2023/09/17 12:21:17;;;;;;;;;;;24.40;95.00;;;;;;5088157;28;19912;-70
2023/09/17 12:23:57;;;;;;;;;;;24.40;95.00;;;;;;5087900;28;20351;-70
2023/09/17 12:26:26;;;;;;;;;;;24.40;95.20;;;;;;5087970;28;19942;-70
2023/09/17 12:28:52;;;;;;;;;;;24.50;95.20;;;;;;5087732;28;20024;-70
2023/09/17 12:31:19;;;;;;;;;;;24.50;94.90;;;;;;5086442;28;19920;-70
2023/09/17 12:33:44;;;;;;;;;;;24.60;95.00;;;;;;5088049;28;19919;-70
2023/09/17 12:36:11;;;;;;;;;;;24.60;94.90;;;;;;5087751;28;20334;-70
2023/09/17 12:38:36;;;;;;;;;;;24.70;95.10;;;;;;5081044;28;19912;-70
2023/09/17 12:41:02;;;;;;;;;;;24.70;95.20;;;;;;5087516;28;19978;-70
2023/09/17 12:43:28;;;;;;;;;;;24.70;95.10;;;;;;5087832;28;19918;-70
2023/09/17 12:45:53;;;;;;;;;;;24.80;95.10;;;;;;5086561;28;20390;-70
2023/09/17 12:48:20;;;;;;;;;;;24.80;95.20;;;;;;5087917;28;19922;-70
2023/09/17 12:50:46;;;;;;;;;;;24.90;95.10;;;;;;5087726;28;19975;-70
2023/09/17 12:53:12;;;;;;;;;;;24.80;95.40;;;;;;5087423;28;19912;-70
2023/09/17 12:55:38;;;;;;;;;;;24.90;95.50;;;;;;5104704;27;19917;-70
2023/09/17 12:58:07;;;;;;;;;;;24.90;95.30;;;;;;5087277;28;19947;-70
2023/09/17 13:00:33;;;;;;;;;;;24.90;95.20;;;;;;5085471;28;20032;-70
2023/09/17 13:03:18;;;;;;;;;;;24.90;95.50;;;;;;5074825;28;19928;-70
2023/09/17 13:05:45;;;;;;;;;;;24.90;95.50;;;;;;5078356;28;19923;-70
2023/09/17 13:08:10;;;;;;;;;;;25.00;95.50;;;;;;5076223;28;20525;-70
2023/09/17 13:10:39;;;;;;;;;;;25.00;95.40;;;;;;5076752;28;19916;-71
2023/09/17 13:13:05;;;;;;;;;;;25.00;95.70;;;;;;5081770;28;19916;-70
2023/09/17 13:15:31;;;;;;;;;;;25.00;95.80;;;;;;5085247;28;19958;-70
2023/09/17 13:17:57;;;;;;;;;;;25.10;95.50;;;;;;5102387;27;19920;-70
2023/09/17 13:20:23;;;;;;;;;;;25.10;95.20;;;;;;5081274;28;20026;-70
2023/09/17 13:22:50;;;;;;;;;;;25.20;95.30;;;;;;5083085;28;20011;-70
2023/09/17 13:25:16;;;;;;;;;;;25.20;95.80;;;;;;5078475;28;19919;-70
2023/09/17 13:27:43;;;;;;;;;;;25.30;95.10;;;;;;5084224;28;19920;-71
2023/09/17 13:30:09;;;;;;;;;;;25.30;94.60;;;;;;5077716;28;20005;-70
2023/09/17 13:32:36;;;;;;;;;;;25.40;95.30;;;;;;5077145;28;20216;-70
2023/09/17 13:35:08;;;;;;;;;;;25.30;95.30;;;;;;5082642;28;19952;-70
2023/09/17 13:37:38;;;;;;;;;;;25.30;95.20;;;;;;5082310;28;19922;-71
2023/09/17 13:40:07;;;;;;;;;;;25.40;95.00;;;;;;5082382;28;19916;-70
2023/09/17 13:42:35;;;;;;;;;;;25.40;95.30;;;;;;5084876;28;19912;-70
2023/09/17 13:45:01;;;;;;;;;;;25.40;95.00;;;;;;5087287;28;20063;-71
2023/09/17 13:47:27;;;;;;;;;;;25.40;95.40;;;;;;5084709;28;19920;-71
2023/09/17 13:49:52;;;;;;;;;;;25.50;95.40;;;;;;5083910;28;19916;-70
2023/09/17 13:52:18;;;;;;;;;;;25.50;94.80;;;;;;5082904;28;19932;-71
2023/09/17 13:54:44;;;;;;;;;;;25.50;95.00;;;;;;5085522;28;19916;-71
2023/09/17 13:57:09;;;;;;;;;;;25.60;95.00;;;;;;5081125;28;19912;-70
2023/09/17 13:59:35;;;;;;;;;;;25.60;95.10;;;;;;5084182;28;19920;-70
2023/09/17 14:02:04;;;;;;;;;;;25.60;94.90;;;;;;5085289;28;19919;-70
2023/09/17 14:04:29;;;;;;;;;;;25.60;94.50;;;;;;5105041;27;20246;-71
2023/09/17 14:06:57;;;;;;;;;;;25.60;94.50;;;;;;5078094;28;19999;-70
2023/09/17 14:09:23;;;;;;;;;;;25.60;94.60;;;;;;5077117;28;20015;-71
2023/09/17 14:11:48;;;;;;;;;;;25.50;94.50;;;;;;5073026;28;20023;-71
2023/09/17 14:14:14;;;;;;;;;;;25.50;94.50;;;;;;5072500;28;20258;-71